sensor_id;sensor_type;location;lat;lon;timestamp;P1;durP1;ratioP1;P2;durP2;ratioP2
27893;SDS011;15240;50.812;4.792;2023-09-19T00:00:14;12.13;;;2.70;;
27893;SDS011;15240;50.812;4.792;2023-09-19T00:02:44;13.80;;;2.70;;
27893;SDS011;15240;50.812;4.792;2023-09-19T00:05:12;14.43;;;3.03;;
27893;SDS011;15240;50.812;4.792;2023-09-19T00:07:39;10.07;;;2.70;;
27893;SDS011;15240;50.812;4.792;2023-09-19T00:10:05;11.60;;;2.37;;
27893;SDS011;15240;50.812;4.792;2023-09-19T00:12:34;10.23;;;2.50;;
27893;SDS011;15240;50.812;4.792;2023-09-19T00:15:00;13.97;;;2.80;;
27893;SDS011;15240;50.812;4.792;2023-09-19T00:17:30;10.83;;;2.87;;
27893;SDS011;15240;50.812;4.792;2023-09-19T00:19:57;8.50;;;2.80;;
27893;SDS011;15240;50.812;4.792;2023-09-19T00:22:23;11.43;;;2.50;;
27893;SDS011;15240;50.812;4.792;2023-09-19T00:24:51;13.17;;;2.80;;
27893;SDS011;15240;50.812;4.792;2023-09-19T00:27:18;12.87;;;2.40;;
27893;SDS011;15240;50.812;4.792;2023-09-19T00:29:45;11.77;;;2.47;;
27893;SDS011;15240;50.812;4.792;2023-09-19T00:32:11;8.63;;;2.40;;
27893;SDS011;15240;50.812;4.792;2023-09-19T00:34:37;12.70;;;2.47;;
27893;SDS011;15240;50.812;4.792;2023-09-19T00:37:03;12.10;;;2.33;;
27893;SDS011;15240;50.812;4.792;2023-09-19T00:39:29;9.43;;;2.47;;
27893;SDS011;15240;50.812;4.792;2023-09-19T00:41:56;9.77;;;2.37;;
27893;SDS011;15240;50.812;4.792;2023-09-19T00:44:22;13.77;;;2.60;;
27893;SDS011;15240;50.812;4.792;2023-09-19T00:46:49;13.17;;;3.00;;
27893;SDS011;15240;50.812;4.792;2023-09-19T00:49:16;12.27;;;2.83;;
27893;SDS011;15240;50.812;4.792;2023-09-19T00:51:45;13.10;;;2.30;;
27893;SDS011;15240;50.812;4.792;2023-09-19T00:54:12;9.23;;;2.47;;
27893;SDS011;15240;50.812;4.792;2023-09-19T00:56:43;11.83;;;2.70;;
27893;SDS011;15240;50.812;4.792;2023-09-19T00:59:09;11.80;;;2.53;;
27893;SDS011;15240;50.812;4.792;2023-09-19T01:01:37;11.63;;;2.90;;
27893;SDS011;15240;50.812;4.792;2023-09-19T01:04:05;10.20;;;2.47;;
27893;SDS011;15240;50.812;4.792;2023-09-19T01:06:31;13.13;;;3.27;;
27893;SDS011;15240;50.812;4.792;2023-09-19T01:08:58;13.23;;;2.87;;
27893;SDS011;15240;50.812;4.792;2023-09-19T01:11:35;12.90;;;2.97;;
27893;SDS011;15240;50.812;4.792;2023-09-19T01:22:02;9.70;;;2.43;;
27893;SDS011;15240;50.812;4.792;2023-09-19T01:29:47;12.80;;;2.73;;
27893;SDS011;15240;50.812;4.792;2023-09-19T01:32:18;11.43;;;2.60;;
27893;SDS011;15240;50.812;4.792;2023-09-19T01:34:49;12.03;;;2.80;;
27893;SDS011;15240;50.812;4.792;2023-09-19T01:37:16;13.00;;;2.53;;
27893;SDS011;15240;50.812;4.792;2023-09-19T01:39:48;14.50;;;2.33;;
27893;SDS011;15240;50.812;4.792;2023-09-19T01:52:27;11.00;;;2.70;;
27893;SDS011;15240;50.812;4.792;2023-09-19T01:54:56;12.17;;;2.80;;
27893;SDS011;15240;50.812;4.792;2023-09-19T02:00:09;13.43;;;2.93;;
27893;SDS011;15240;50.812;4.792;2023-09-19T02:02:40;11.13;;;2.93;;
27893;SDS011;15240;50.812;4.792;2023-09-19T02:05:06;13.23;;;2.90;;
27893;SDS011;15240;50.812;4.792;2023-09-19T02:07:32;12.80;;;2.87;;
27893;SDS011;15240;50.812;4.792;2023-09-19T02:09:59;10.17;;;2.40;;
27893;SDS011;15240;50.812;4.792;2023-09-19T02:12:26;13.67;;;2.70;;
27893;SDS011;15240;50.812;4.792;2023-09-19T02:14:52;12.53;;;2.80;;
27893;SDS011;15240;50.812;4.792;2023-09-19T02:17:18;13.17;;;2.70;;
27893;SDS011;15240;50.812;4.792;2023-09-19T02:19:45;12.17;;;2.70;;
27893;SDS011;15240;50.812;4.792;2023-09-19T02:22:11;7.73;;;2.47;;
27893;SDS011;15240;50.812;4.792;2023-09-19T02:24:39;11.50;;;2.77;;
27893;SDS011;15240;50.812;4.792;2023-09-19T02:27:06;10.47;;;2.40;;
27893;SDS011;15240;50.812;4.792;2023-09-19T02:29:32;15.47;;;3.27;;
27893;SDS011;15240;50.812;4.792;2023-09-19T02:32:01;12.63;;;2.87;;
27893;SDS011;15240;50.812;4.792;2023-09-19T02:34:28;15.27;;;2.80;;
27893;SDS011;15240;50.812;4.792;2023-09-19T02:36:54;15.77;;;2.80;;
27893;SDS011;15240;50.812;4.792;2023-09-19T02:39:21;12.47;;;3.17;;
27893;SDS011;15240;50.812;4.792;2023-09-19T02:41:48;7.80;;;2.60;;
27893;SDS011;15240;50.812;4.792;2023-09-19T02:44:14;19.83;;;3.30;;
27893;SDS011;15240;50.812;4.792;2023-09-19T02:46:40;13.53;;;3.47;;
27893;SDS011;15240;50.812;4.792;2023-09-19T02:49:07;10.63;;;3.33;;
27893;SDS011;15240;50.812;4.792;2023-09-19T02:51:33;11.87;;;3.03;;
27893;SDS011;15240;50.812;4.792;2023-09-19T02:53:59;14.40;;;3.40;;
27893;SDS011;15240;50.812;4.792;2023-09-19T02:56:27;11.53;;;3.30;;
27893;SDS011;15240;50.812;4.792;2023-09-19T02:58:55;14.93;;;3.27;;
27893;SDS011;15240;50.812;4.792;2023-09-19T03:01:21;15.30;;;3.50;;
27893;SDS011;15240;50.812;4.792;2023-09-19T03:03:47;20.13;;;3.47;;
27893;SDS011;15240;50.812;4.792;2023-09-19T03:06:13;13.57;;;3.37;;
27893;SDS011;15240;50.812;4.792;2023-09-19T03:08:40;16.23;;;3.17;;
27893;SDS011;15240;50.812;4.792;2023-09-19T03:11:08;13.80;;;3.13;;
27893;SDS011;15240;50.812;4.792;2023-09-19T03:13:36;9.73;;;2.80;;
27893;SDS011;15240;50.812;4.792;2023-09-19T03:16:03;16.77;;;3.00;;
27893;SDS011;15240;50.812;4.792;2023-09-19T03:18:35;13.93;;;2.87;;
27893;SDS011;15240;50.812;4.792;2023-09-19T03:21:02;10.73;;;3.20;;
27893;SDS011;15240;50.812;4.792;2023-09-19T03:23:28;12.13;;;2.83;;
27893;SDS011;15240;50.812;4.792;2023-09-19T03:25:54;11.13;;;3.10;;
27893;SDS011;15240;50.812;4.792;2023-09-19T03:28:21;18.13;;;3.43;;
27893;SDS011;15240;50.812;4.792;2023-09-19T03:31:04;10.97;;;2.63;;
27893;SDS011;15240;50.812;4.792;2023-09-19T03:33:30;12.50;;;3.03;;
27893;SDS011;15240;50.812;4.792;2023-09-19T03:35:58;10.57;;;2.80;;
27893;SDS011;15240;50.812;4.792;2023-09-19T03:38:24;8.90;;;2.60;;
27893;SDS011;15240;50.812;4.792;2023-09-19T03:40:51;9.03;;;2.67;;
27893;SDS011;15240;50.812;4.792;2023-09-19T03:43:17;9.73;;;2.70;;
27893;SDS011;15240;50.812;4.792;2023-09-19T03:45:43;13.97;;;2.47;;
27893;SDS011;15240;50.812;4.792;2023-09-19T03:48:10;10.40;;;2.47;;
27893;SDS011;15240;50.812;4.792;2023-09-19T03:50:36;9.57;;;2.70;;
27893;SDS011;15240;50.812;4.792;2023-09-19T03:53:02;16.53;;;3.00;;
27893;SDS011;15240;50.812;4.792;2023-09-19T03:55:29;12.83;;;2.70;;
27893;SDS011;15240;50.812;4.792;2023-09-19T03:57:58;11.50;;;2.90;;
27893;SDS011;15240;50.812;4.792;2023-09-19T04:00:24;12.90;;;2.80;;
27893;SDS011;15240;50.812;4.792;2023-09-19T04:02:51;12.87;;;2.77;;
27893;SDS011;15240;50.812;4.792;2023-09-19T04:05:18;11.40;;;2.57;;
27893;SDS011;15240;50.812;4.792;2023-09-19T04:07:44;15.23;;;3.13;;
27893;SDS011;15240;50.812;4.792;2023-09-19T04:10:10;13.20;;;2.57;;
27893;SDS011;15240;50.812;4.792;2023-09-19T04:12:37;14.50;;;2.87;;
27893;SDS011;15240;50.812;4.792;2023-09-19T04:15:04;11.50;;;2.27;;
27893;SDS011;15240;50.812;4.792;2023-09-19T04:17:31;12.73;;;2.93;;
27893;SDS011;15240;50.812;4.792;2023-09-19T04:19:59;11.77;;;2.20;;
27893;SDS011;15240;50.812;4.792;2023-09-19T04:22:26;10.73;;;2.80;;
27893;SDS011;15240;50.812;4.792;2023-09-19T04:24:52;10.83;;;2.23;;
27893;SDS011;15240;50.812;4.792;2023-09-19T04:27:18;16.90;;;2.80;;
27893;SDS011;15240;50.812;4.792;2023-09-19T04:29:44;11.33;;;2.60;;
27893;SDS011;15240;50.812;4.792;2023-09-19T04:32:10;15.77;;;2.73;;
27893;SDS011;15240;50.812;4.792;2023-09-19T04:34:38;10.43;;;2.50;;
27893;SDS011;15240;50.812;4.792;2023-09-19T04:37:04;10.37;;;2.37;;
27893;SDS011;15240;50.812;4.792;2023-09-19T04:39:30;11.53;;;2.60;;
27893;SDS011;15240;50.812;4.792;2023-09-19T04:41:56;21.80;;;2.80;;
27893;SDS011;15240;50.812;4.792;2023-09-19T04:44:24;9.20;;;2.13;;
27893;SDS011;15240;50.812;4.792;2023-09-19T04:46:50;14.60;;;3.00;;
27893;SDS011;15240;50.812;4.792;2023-09-19T04:49:16;15.80;;;2.70;;
27893;SDS011;15240;50.812;4.792;2023-09-19T04:51:43;11.80;;;2.40;;
27893;SDS011;15240;50.812;4.792;2023-09-19T04:54:11;13.27;;;2.53;;
27893;SDS011;15240;50.812;4.792;2023-09-19T04:56:38;9.83;;;2.53;;
27893;SDS011;15240;50.812;4.792;2023-09-19T04:59:05;9.73;;;2.60;;
27893;SDS011;15240;50.812;4.792;2023-09-19T05:01:31;8.87;;;2.50;;
27893;SDS011;15240;50.812;4.792;2023-09-19T05:03:57;7.03;;;2.30;;
27893;SDS011;15240;50.812;4.792;2023-09-19T05:06:23;13.53;;;2.67;;
27893;SDS011;15240;50.812;4.792;2023-09-19T05:08:52;10.40;;;2.20;;
27893;SDS011;15240;50.812;4.792;2023-09-19T05:11:18;11.80;;;2.30;;
27893;SDS011;15240;50.812;4.792;2023-09-19T05:13:45;12.10;;;2.60;;
27893;SDS011;15240;50.812;4.792;2023-09-19T05:16:11;15.97;;;2.70;;
27893;SDS011;15240;50.812;4.792;2023-09-19T05:18:37;10.63;;;2.43;;
27893;SDS011;15240;50.812;4.792;2023-09-19T05:21:03;11.57;;;2.70;;
27893;SDS011;15240;50.812;4.792;2023-09-19T05:23:29;15.07;;;2.63;;
27893;SDS011;15240;50.812;4.792;2023-09-19T05:25:56;13.03;;;2.67;;
27893;SDS011;15240;50.812;4.792;2023-09-19T05:28:25;12.17;;;2.60;;
27893;SDS011;15240;50.812;4.792;2023-09-19T05:30:51;12.20;;;2.67;;
27893;SDS011;15240;50.812;4.792;2023-09-19T05:33:18;16.17;;;3.37;;
27893;SDS011;15240;50.812;4.792;2023-09-19T05:35:44;14.53;;;2.97;;
27893;SDS011;15240;50.812;4.792;2023-09-19T05:38:12;12.67;;;2.67;;
27893;SDS011;15240;50.812;4.792;2023-09-19T05:40:39;13.10;;;2.57;;
27893;SDS011;15240;50.812;4.792;2023-09-19T05:43:08;14.10;;;2.73;;
27893;SDS011;15240;50.812;4.792;2023-09-19T05:45:34;13.93;;;2.87;;
27893;SDS011;15240;50.812;4.792;2023-09-19T05:48:11;12.07;;;2.90;;
27893;SDS011;15240;50.812;4.792;2023-09-19T05:50:41;14.07;;;2.90;;
27893;SDS011;15240;50.812;4.792;2023-09-19T05:53:08;14.47;;;2.67;;
27893;SDS011;15240;50.812;4.792;2023-09-19T05:55:37;11.20;;;2.43;;
27893;SDS011;15240;50.812;4.792;2023-09-19T05:58:03;10.57;;;2.50;;
27893;SDS011;15240;50.812;4.792;2023-09-19T06:00:30;14.80;;;2.63;;
27893;SDS011;15240;50.812;4.792;2023-09-19T06:02:57;10.00;;;2.20;;
27893;SDS011;15240;50.812;4.792;2023-09-19T06:05:24;15.70;;;2.57;;
27893;SDS011;15240;50.812;4.792;2023-09-19T06:07:51;11.90;;;2.20;;
27893;SDS011;15240;50.812;4.792;2023-09-19T06:10:18;13.47;;;2.77;;
27893;SDS011;15240;50.812;4.792;2023-09-19T06:12:46;13.23;;;2.80;;
27893;SDS011;15240;50.812;4.792;2023-09-19T06:15:13;9.80;;;2.30;;
27893;SDS011;15240;50.812;4.792;2023-09-19T06:17:52;10.93;;;2.23;;
27893;SDS011;15240;50.812;4.792;2023-09-19T06:20:21;12.53;;;2.30;;
27893;SDS011;15240;50.812;4.792;2023-09-19T06:22:48;12.27;;;2.53;;
27893;SDS011;15240;50.812;4.792;2023-09-19T06:25:14;12.63;;;2.17;;
27893;SDS011;15240;50.812;4.792;2023-09-19T06:27:43;11.33;;;2.60;;
27893;SDS011;15240;50.812;4.792;2023-09-19T06:30:09;13.60;;;2.53;;
27893;SDS011;15240;50.812;4.792;2023-09-19T06:32:42;10.23;;;2.30;;
27893;SDS011;15240;50.812;4.792;2023-09-19T06:35:11;10.53;;;2.30;;
27893;SDS011;15240;50.812;4.792;2023-09-19T06:37:38;9.93;;;2.00;;
27893;SDS011;15240;50.812;4.792;2023-09-19T06:40:08;9.40;;;2.30;;
27893;SDS011;15240;50.812;4.792;2023-09-19T06:42:51;10.05;;;2.20;;
27893;SDS011;15240;50.812;4.792;2023-09-19T06:45:19;11.17;;;2.17;;
27893;SDS011;15240;50.812;4.792;2023-09-19T06:47:46;9.87;;;2.30;;
27893;SDS011;15240;50.812;4.792;2023-09-19T06:50:19;10.73;;;2.63;;
27893;SDS011;15240;50.812;4.792;2023-09-19T06:52:47;10.20;;;2.70;;
27893;SDS011;15240;50.812;4.792;2023-09-19T06:55:15;10.43;;;2.17;;
27893;SDS011;15240;50.812;4.792;2023-09-19T06:57:41;9.90;;;2.07;;
27893;SDS011;15240;50.812;4.792;2023-09-19T07:00:09;10.87;;;2.30;;
27893;SDS011;15240;50.812;4.792;2023-09-19T07:02:43;9.30;;;2.67;;
27893;SDS011;15240;50.812;4.792;2023-09-19T07:05:09;10.73;;;2.03;;
27893;SDS011;15240;50.812;4.792;2023-09-19T07:07:36;10.83;;;2.30;;
27893;SDS011;15240;50.812;4.792;2023-09-19T07:10:03;10.13;;;2.00;;
27893;SDS011;15240;50.812;4.792;2023-09-19T07:12:35;10.20;;;2.60;;
27893;SDS011;15240;50.812;4.792;2023-09-19T07:15:01;9.90;;;2.13;;
27893;SDS011;15240;50.812;4.792;2023-09-19T07:17:28;11.80;;;2.27;;
27893;SDS011;15240;50.812;4.792;2023-09-19T07:19:54;9.77;;;2.20;;
27893;SDS011;15240;50.812;4.792;2023-09-19T07:22:21;9.10;;;1.97;;
27893;SDS011;15240;50.812;4.792;2023-09-19T07:24:48;10.83;;;1.90;;
27893;SDS011;15240;50.812;4.792;2023-09-19T07:27:14;10.30;;;1.90;;
27893;SDS011;15240;50.812;4.792;2023-09-19T07:29:41;12.63;;;2.47;;
27893;SDS011;15240;50.812;4.792;2023-09-19T07:32:07;7.30;;;2.30;;
27893;SDS011;15240;50.812;4.792;2023-09-19T07:34:33;10.27;;;1.83;;
27893;SDS011;15240;50.812;4.792;2023-09-19T07:37:00;7.87;;;2.40;;
27893;SDS011;15240;50.812;4.792;2023-09-19T07:39:26;9.83;;;2.23;;
27893;SDS011;15240;50.812;4.792;2023-09-19T07:41:52;7.47;;;2.17;;
27893;SDS011;15240;50.812;4.792;2023-09-19T07:44:19;8.93;;;2.00;;
27893;SDS011;15240;50.812;4.792;2023-09-19T07:46:45;10.33;;;2.40;;
27893;SDS011;15240;50.812;4.792;2023-09-19T07:49:11;8.80;;;2.07;;
27893;SDS011;15240;50.812;4.792;2023-09-19T07:51:37;10.13;;;2.10;;
27893;SDS011;15240;50.812;4.792;2023-09-19T07:54:05;8.37;;;2.10;;
27893;SDS011;15240;50.812;4.792;2023-09-19T07:56:31;8.27;;;2.50;;
27893;SDS011;15240;50.812;4.792;2023-09-19T07:58:57;9.57;;;2.00;;
27893;SDS011;15240;50.812;4.792;2023-09-19T08:01:24;8.20;;;2.33;;
27893;SDS011;15240;50.812;4.792;2023-09-19T08:03:52;9.00;;;2.13;;
27893;SDS011;15240;50.812;4.792;2023-09-19T08:06:18;7.90;;;2.13;;
27893;SDS011;15240;50.812;4.792;2023-09-19T08:08:45;11.77;;;2.10;;
27893;SDS011;15240;50.812;4.792;2023-09-19T08:11:11;9.88;;;2.08;;
27893;SDS011;15240;50.812;4.792;2023-09-19T08:13:41;6.93;;;2.20;;
27893;SDS011;15240;50.812;4.792;2023-09-19T08:16:10;9.52;;;2.28;;
27893;SDS011;15240;50.812;4.792;2023-09-19T08:18:37;8.68;;;2.10;;
27893;SDS011;15240;50.812;4.792;2023-09-19T08:21:05;12.68;;;2.30;;
27893;SDS011;15240;50.812;4.792;2023-09-19T08:23:35;9.50;;;2.00;;
27893;SDS011;15240;50.812;4.792;2023-09-19T08:26:01;9.40;;;2.15;;
27893;SDS011;15240;50.812;4.792;2023-09-19T08:28:33;12.52;;;2.67;;
27893;SDS011;15240;50.812;4.792;2023-09-19T08:31:02;10.32;;;2.40;;
27893;SDS011;15240;50.812;4.792;2023-09-19T08:33:31;9.70;;;2.20;;
27893;SDS011;15240;50.812;4.792;2023-09-19T08:35:58;10.18;;;2.28;;
27893;SDS011;15240;50.812;4.792;2023-09-19T08:38:24;11.15;;;2.00;;
27893;SDS011;15240;50.812;4.792;2023-09-19T08:40:56;8.23;;;2.15;;
27893;SDS011;15240;50.812;4.792;2023-09-19T08:43:23;9.73;;;2.00;;
27893;SDS011;15240;50.812;4.792;2023-09-19T08:45:50;11.93;;;2.38;;
27893;SDS011;15240;50.812;4.792;2023-09-19T08:53:27;11.57;;;2.33;;
27893;SDS011;15240;50.812;4.792;2023-09-19T08:55:57;12.25;;;2.25;;
27893;SDS011;15240;50.812;4.792;2023-09-19T08:58:27;12.93;;;2.00;;
27893;SDS011;15240;50.812;4.792;2023-09-19T09:00:56;9.40;;;2.30;;
27893;SDS011;15240;50.812;4.792;2023-09-19T09:03:23;12.90;;;2.45;;
27893;SDS011;15240;50.812;4.792;2023-09-19T09:05:51;6.65;;;1.85;;
27893;SDS011;15240;50.812;4.792;2023-09-19T09:08:18;9.18;;;2.20;;
27893;SDS011;15240;50.812;4.792;2023-09-19T09:10:45;10.82;;;2.40;;
27893;SDS011;15240;50.812;4.792;2023-09-19T09:13:11;9.95;;;2.53;;
27893;SDS011;15240;50.812;4.792;2023-09-19T09:15:39;9.10;;;2.13;;
27893;SDS011;15240;50.812;4.792;2023-09-19T09:18:06;7.05;;;1.98;;
27893;SDS011;15240;50.812;4.792;2023-09-19T09:20:33;10.05;;;2.30;;
27893;SDS011;15240;50.812;4.792;2023-09-19T09:22:59;8.15;;;2.20;;
27893;SDS011;15240;50.812;4.792;2023-09-19T09:25:50;10.10;;;2.25;;
27893;SDS011;15240;50.812;4.792;2023-09-19T09:28:22;10.27;;;2.17;;
27893;SDS011;15240;50.812;4.792;2023-09-19T09:30:48;10.88;;;2.15;;
27893;SDS011;15240;50.812;4.792;2023-09-19T09:33:15;9.75;;;1.98;;
27893;SDS011;15240;50.812;4.792;2023-09-19T09:35:48;11.48;;;2.08;;
27893;SDS011;15240;50.812;4.792;2023-09-19T09:38:18;9.25;;;1.92;;
27893;SDS011;15240;50.812;4.792;2023-09-19T09:40:50;9.57;;;2.28;;
27893;SDS011;15240;50.812;4.792;2023-09-19T09:43:28;10.50;;;2.00;;
27893;SDS011;15240;50.812;4.792;2023-09-19T09:51:40;8.18;;;2.05;;
27893;SDS011;15240;50.812;4.792;2023-09-19T09:54:24;9.38;;;1.90;;
27893;SDS011;15240;50.812;4.792;2023-09-19T09:56:53;8.40;;;1.90;;
27893;SDS011;15240;50.812;4.792;2023-09-19T09:59:20;11.50;;;2.10;;
27893;SDS011;15240;50.812;4.792;2023-09-19T10:01:49;9.38;;;2.10;;
27893;SDS011;15240;50.812;4.792;2023-09-19T10:04:28;8.32;;;2.10;;
27893;SDS011;15240;50.812;4.792;2023-09-19T10:07:01;9.80;;;1.92;;
27893;SDS011;15240;50.812;4.792;2023-09-19T10:09:44;6.95;;;2.00;;
27893;SDS011;15240;50.812;4.792;2023-09-19T10:12:10;8.00;;;1.75;;
27893;SDS011;15240;50.812;4.792;2023-09-19T10:14:38;8.10;;;1.95;;
27893;SDS011;15240;50.812;4.792;2023-09-19T10:17:06;7.18;;;1.70;;
27893;SDS011;15240;50.812;4.792;2023-09-19T10:22:16;8.25;;;1.95;;
27893;SDS011;15240;50.812;4.792;2023-09-19T10:24:47;7.57;;;1.90;;
27893;SDS011;15240;50.812;4.792;2023-09-19T10:27:18;6.97;;;1.85;;
27893;SDS011;15240;50.812;4.792;2023-09-19T10:29:45;5.00;;;1.42;;
27893;SDS011;15240;50.812;4.792;2023-09-19T10:32:16;7.47;;;1.73;;
27893;SDS011;15240;50.812;4.792;2023-09-19T10:34:45;7.03;;;1.90;;
27893;SDS011;15240;50.812;4.792;2023-09-19T10:37:12;5.90;;;1.70;;
27893;SDS011;15240;50.812;4.792;2023-09-19T10:39:40;4.40;;;1.02;;
27893;SDS011;15240;50.812;4.792;2023-09-19T10:42:07;8.13;;;1.77;;
27893;SDS011;15240;50.812;4.792;2023-09-19T10:44:34;5.87;;;1.60;;
27893;SDS011;15240;50.812;4.792;2023-09-19T10:47:09;6.07;;;1.50;;
27893;SDS011;15240;50.812;4.792;2023-09-19T10:49:42;7.97;;;1.52;;
27893;SDS011;15240;50.812;4.792;2023-09-19T10:52:08;7.07;;;1.53;;
27893;SDS011;15240;50.812;4.792;2023-09-19T10:54:41;7.55;;;1.48;;
27893;SDS011;15240;50.812;4.792;2023-09-19T10:57:11;8.07;;;1.20;;
27893;SDS011;15240;50.812;4.792;2023-09-19T10:59:49;9.47;;;1.57;;
27893;SDS011;15240;50.812;4.792;2023-09-19T11:02:27;7.93;;;1.60;;
27893;SDS011;15240;50.812;4.792;2023-09-19T11:04:53;4.77;;;1.03;;
27893;SDS011;15240;50.812;4.792;2023-09-19T11:07:20;6.03;;;1.40;;
27893;SDS011;15240;50.812;4.792;2023-09-19T11:15:06;6.63;;;1.40;;
27893;SDS011;15240;50.812;4.792;2023-09-19T11:17:39;6.00;;;1.30;;
27893;SDS011;15240;50.812;4.792;2023-09-19T11:30:44;5.20;;;1.00;;
27893;SDS011;15240;50.812;4.792;2023-09-19T11:43:46;5.70;;;2.20;;
27893;SDS011;15240;50.812;4.792;2023-09-19T11:46:12;6.35;;;3.03;;
27893;SDS011;15240;50.812;4.792;2023-09-19T11:48:42;6.95;;;1.60;;
27893;SDS011;15240;50.812;4.792;2023-09-19T11:51:13;4.63;;;1.42;;
27893;SDS011;15240;50.812;4.792;2023-09-19T11:53:51;5.15;;;1.00;;
27893;SDS011;15240;50.812;4.792;2023-09-19T11:56:18;5.53;;;1.10;;
27893;SDS011;15240;50.812;4.792;2023-09-19T11:58:46;9.45;;;1.25;;
27893;SDS011;15240;50.812;4.792;2023-09-19T12:01:14;2.85;;;1.00;;
27893;SDS011;15240;50.812;4.792;2023-09-19T12:03:45;4.50;;;1.20;;
27893;SDS011;15240;50.812;4.792;2023-09-19T12:06:13;5.85;;;1.50;;
27893;SDS011;15240;50.812;4.792;2023-09-19T12:08:40;5.40;;;1.40;;
27893;SDS011;15240;50.812;4.792;2023-09-19T12:11:11;4.63;;;1.67;;
27893;SDS011;15240;50.812;4.792;2023-09-19T12:13:41;2.45;;;0.80;;
27893;SDS011;15240;50.812;4.792;2023-09-19T12:16:12;8.20;;;1.00;;
27893;SDS011;15240;50.812;4.792;2023-09-19T12:18:40;4.85;;;0.98;;
27893;SDS011;15240;50.812;4.792;2023-09-19T12:21:08;3.35;;;0.70;;
27893;SDS011;15240;50.812;4.792;2023-09-19T12:23:37;3.60;;;0.82;;
27893;SDS011;15240;50.812;4.792;2023-09-19T12:26:06;4.22;;;1.23;;
27893;SDS011;15240;50.812;4.792;2023-09-19T12:28:40;3.75;;;1.02;;
27893;SDS011;15240;50.812;4.792;2023-09-19T12:31:07;5.30;;;1.10;;
27893;SDS011;15240;50.812;4.792;2023-09-19T12:33:33;6.72;;;0.80;;
27893;SDS011;15240;50.812;4.792;2023-09-19T12:36:00;3.97;;;0.80;;
27893;SDS011;15240;50.812;4.792;2023-09-19T12:38:30;6.40;;;1.05;;
27893;SDS011;15240;50.812;4.792;2023-09-19T12:40:57;3.92;;;0.95;;
27893;SDS011;15240;50.812;4.792;2023-09-19T12:43:25;4.88;;;0.90;;
27893;SDS011;15240;50.812;4.792;2023-09-19T12:45:52;3.47;;;0.98;;
27893;SDS011;15240;50.812;4.792;2023-09-19T12:53:30;4.75;;;0.90;;
27893;SDS011;15240;50.812;4.792;2023-09-19T12:55:58;8.75;;;0.80;;
27893;SDS011;15240;50.812;4.792;2023-09-19T12:58:24;3.45;;;0.93;;
27893;SDS011;15240;50.812;4.792;2023-09-19T13:00:50;2.63;;;0.80;;
27893;SDS011;15240;50.812;4.792;2023-09-19T13:08:21;5.15;;;1.10;;
27893;SDS011;15240;50.812;4.792;2023-09-19T13:13:44;4.10;;;0.80;;
27893;SDS011;15240;50.812;4.792;2023-09-19T13:16:13;4.30;;;0.90;;
27893;SDS011;15240;50.812;4.792;2023-09-19T13:18:50;6.00;;;0.80;;
27893;SDS011;15240;50.812;4.792;2023-09-19T13:21:26;3.53;;;0.80;;
27893;SDS011;15240;50.812;4.792;2023-09-19T13:23:53;6.57;;;0.95;;
27893;SDS011;15240;50.812;4.792;2023-09-19T13:26:24;6.07;;;0.90;;
27893;SDS011;15240;50.812;4.792;2023-09-19T13:28:50;7.47;;;1.23;;
27893;SDS011;15240;50.812;4.792;2023-09-19T13:31:16;5.45;;;0.90;;
27893;SDS011;15240;50.812;4.792;2023-09-19T13:33:43;5.85;;;1.10;;
27893;SDS011;15240;50.812;4.792;2023-09-19T13:36:10;5.45;;;0.80;;
27893;SDS011;15240;50.812;4.792;2023-09-19T13:38:38;3.63;;;0.80;;
27893;SDS011;15240;50.812;4.792;2023-09-19T13:41:04;4.07;;;0.90;;
27893;SDS011;15240;50.812;4.792;2023-09-19T13:43:31;3.85;;;0.88;;
27893;SDS011;15240;50.812;4.792;2023-09-19T13:45:57;6.90;;;0.90;;
27893;SDS011;15240;50.812;4.792;2023-09-19T13:48:24;6.95;;;1.20;;
27893;SDS011;15240;50.812;4.792;2023-09-19T13:50:50;4.93;;;1.00;;
27893;SDS011;15240;50.812;4.792;2023-09-19T13:53:16;2.78;;;0.73;;
27893;SDS011;15240;50.812;4.792;2023-09-19T13:55:43;6.57;;;1.00;;
27893;SDS011;15240;50.812;4.792;2023-09-19T13:58:09;4.35;;;1.00;;
27893;SDS011;15240;50.812;4.792;2023-09-19T14:00:37;4.13;;;1.10;;
27893;SDS011;15240;50.812;4.792;2023-09-19T14:03:03;5.80;;;1.17;;
27893;SDS011;15240;50.812;4.792;2023-09-19T14:05:29;3.75;;;0.90;;
27893;SDS011;15240;50.812;4.792;2023-09-19T14:07:56;4.78;;;1.02;;
27893;SDS011;15240;50.812;4.792;2023-09-19T14:10:24;3.00;;;0.95;;
27893;SDS011;15240;50.812;4.792;2023-09-19T14:12:55;3.08;;;0.80;;
27893;SDS011;15240;50.812;4.792;2023-09-19T14:15:22;3.33;;;1.02;;
27893;SDS011;15240;50.812;4.792;2023-09-19T14:17:58;5.95;;;1.30;;
27893;SDS011;15240;50.812;4.792;2023-09-19T14:20:25;4.25;;;1.15;;
27893;SDS011;15240;50.812;4.792;2023-09-19T14:22:54;3.22;;;0.90;;
27893;SDS011;15240;50.812;4.792;2023-09-19T14:25:20;5.65;;;1.10;;
27893;SDS011;15240;50.812;4.792;2023-09-19T14:27:47;2.95;;;0.75;;
27893;SDS011;15240;50.812;4.792;2023-09-19T14:30:14;2.35;;;0.73;;
27893;SDS011;15240;50.812;4.792;2023-09-19T14:32:40;4.72;;;1.02;;
27893;SDS011;15240;50.812;4.792;2023-09-19T14:35:06;3.85;;;0.80;;
27893;SDS011;15240;50.812;4.792;2023-09-19T14:37:34;7.10;;;0.98;;
27893;SDS011;15240;50.812;4.792;2023-09-19T14:40:00;5.18;;;1.20;;
27893;SDS011;15240;50.812;4.792;2023-09-19T14:42:32;3.85;;;1.20;;
27893;SDS011;15240;50.812;4.792;2023-09-19T14:45:01;4.88;;;1.30;;
27893;SDS011;15240;50.812;4.792;2023-09-19T14:47:27;6.30;;;1.73;;
27893;SDS011;15240;50.812;4.792;2023-09-19T14:49:53;4.72;;;1.40;;
27893;SDS011;15240;50.812;4.792;2023-09-19T14:52:20;6.50;;;1.60;;
27893;SDS011;15240;50.812;4.792;2023-09-19T14:54:46;3.80;;;1.80;;
27893;SDS011;15240;50.812;4.792;2023-09-19T14:57:12;6.10;;;2.13;;
27893;SDS011;15240;50.812;4.792;2023-09-19T14:59:40;5.72;;;2.22;;
27893;SDS011;15240;50.812;4.792;2023-09-19T15:02:06;4.53;;;2.30;;
27893;SDS011;15240;50.812;4.792;2023-09-19T15:04:32;8.25;;;2.72;;
27893;SDS011;15240;50.812;4.792;2023-09-19T15:06:59;6.03;;;2.70;;
27893;SDS011;15240;50.812;4.792;2023-09-19T15:09:25;4.95;;;2.45;;
27893;SDS011;15240;50.812;4.792;2023-09-19T15:11:52;6.95;;;2.80;;
27893;SDS011;15240;50.812;4.792;2023-09-19T15:14:18;4.30;;;2.40;;
27893;SDS011;15240;50.812;4.792;2023-09-19T15:16:44;8.23;;;2.30;;
27893;SDS011;15240;50.812;4.792;2023-09-19T15:19:11;3.97;;;1.75;;
27893;SDS011;15240;50.812;4.792;2023-09-19T15:21:37;5.95;;;2.15;;
27893;SDS011;15240;50.812;4.792;2023-09-19T15:24:03;6.30;;;1.73;;
27893;SDS011;15240;50.812;4.792;2023-09-19T15:26:30;6.03;;;1.95;;
27893;SDS011;15240;50.812;4.792;2023-09-19T15:28:56;5.95;;;1.90;;
27893;SDS011;15240;50.812;4.792;2023-09-19T15:31:22;4.80;;;1.77;;
27893;SDS011;15240;50.812;4.792;2023-09-19T15:33:48;7.47;;;2.17;;
27893;SDS011;15240;50.812;4.792;2023-09-19T15:36:15;4.85;;;2.00;;
27893;SDS011;15240;50.812;4.792;2023-09-19T15:38:59;7.47;;;2.00;;
27893;SDS011;15240;50.812;4.792;2023-09-19T15:41:29;6.97;;;1.63;;
27893;SDS011;15240;50.812;4.792;2023-09-19T15:43:56;7.88;;;1.98;;
27893;SDS011;15240;50.812;4.792;2023-09-19T15:46:24;7.82;;;1.90;;
27893;SDS011;15240;50.812;4.792;2023-09-19T15:48:52;5.72;;;1.60;;
27893;SDS011;15240;50.812;4.792;2023-09-19T15:51:18;5.47;;;1.40;;
27893;SDS011;15240;50.812;4.792;2023-09-19T15:53:45;5.27;;;1.60;;
27893;SDS011;15240;50.812;4.792;2023-09-19T15:56:12;5.20;;;1.40;;
27893;SDS011;15240;50.812;4.792;2023-09-19T15:58:39;7.65;;;1.55;;
27893;SDS011;15240;50.812;4.792;2023-09-19T16:01:05;4.00;;;1.40;;
27893;SDS011;15240;50.812;4.792;2023-09-19T16:03:38;7.07;;;1.70;;